30 minutes ago
Runway Headwind Crosswind Length
8/26 3 kt 2,822 ft
METAR EHMG 031255Z AUTO 35004KT 9999 FEW023 16/10 Q1015

METAR definition | Embed

METAR Ameland Airport Ballum

Ameland Airport Ballum is a small airport in Ameland, The Netherlands. The airport has one runway: 8/26 (2,822 ft)

Ameland Airport Ballum didn't publish observations recently. Instead, we show you the report of L9-FF-1 which is 32 mi away. This report was made on August 3, 2021 2:55 pm, local time.

Airport observations

The wind is from direction north (350°) with a speed of 4 kt.

Visibility is 6¼ mi or more.

There are few clouds at an altitude of 2,300 ft. No ceiling has been observed.

The temperature and wind chill are 61 °F. The dew point is 50 °F, the relative humidity is 68%. The air pressure at sea level is 29.97 inHg (QNH).

Daylight period

Today the sun rises at 5:57 am and sets at 9:29 pm. This applies to Ameland Airport Ballum, the universal daylight period may be different. The difference between the local time and UTC is +2 hour. Daylight saving time is currently in progress.

Historical data

Donate

Will you help us to keep Metar-Taf.com running?
Your contribution helps further development of the site and to pay for the expenses.

No more ads

Are you donating $ 5 or more? Then we'll never show you ads again, as a token of our eternal gratitude!
Log in before you donate

Do you want the flying weather of Ameland Airport Ballum on your website? Read more   Free!